Time;durP1;ratioP1;P1;durP2;ratioP2;P2;SDS_P1;SDS_P2;PMS_P1;PMS_P2;Temp;Humidity;BMP_temperature;BMP_pressure;BME280_temperature;BME280_humidity;BME280_pressure;Samples;Min_cycle;Max_cycle;Signal;HPM_P1;HPM_P2
2024/04/22 00:01:56;;;;;;;;;;;;;;;21.63;30.06;97296.56;5320629;26;1849;-74
2024/04/22 00:04:22;;;;;;;;;;;;;;;21.37;30.72;97310.06;5285142;27;977;-74
2024/04/22 00:06:47;;;;;;;;;;;;;;;21.30;30.72;97311.13;5284425;27;1051;-74
2024/04/22 00:09:13;;;;;;;;;;;;;;;21.21;30.56;97308.19;5284804;27;981;-76
2024/04/22 00:11:38;;;;;;;;;;;;;;;21.26;30.74;97313.25;5285400;26;1775;-75
2024/04/22 00:14:04;;;;;;;;;;;;;;;21.33;30.54;97315.06;5312898;27;1209;-74
2024/04/22 00:16:29;;;;;;;;;;;;;;;21.40;30.38;97308.34;5284844;27;952;-76
2024/04/22 00:18:55;;;;;;;;;;;;;;;21.24;30.62;97297.97;5190832;27;1303;-75
2024/04/22 00:21:20;;;;;;;;;;;;;;;21.45;30.19;97290.75;5233618;27;1863;-74
2024/04/22 00:23:46;;;;;;;;;;;;;;;21.36;30.36;97285.06;5184361;27;1175;-74
2024/04/22 00:26:12;;;;;;;;;;;;;;;21.38;30.18;97300.31;5211879;27;1101;-74
2024/04/22 00:28:37;;;;;;;;;;;;;;;21.37;30.46;97320.59;5210935;27;1748;-74
2024/04/22 00:31:03;;;;;;;;;;;;;;;21.15;30.34;97304.38;5211755;27;1149;-74
2024/04/22 00:33:28;;;;;;;;;;;;;;;20.89;30.72;97297.22;5184162;27;881;-75
2024/04/22 00:35:54;;;;;;;;;;;;;;;21.36;29.97;97296.38;5211830;27;1209;-74
2024/04/22 00:38:20;;;;;;;;;;;;;;;21.28;30.01;97288.09;5211810;27;1799;-74
2024/04/22 00:40:45;;;;;;;;;;;;;;;21.15;30.11;97304.38;5217126;27;1822;-75
2024/04/22 00:43:11;;;;;;;;;;;;;;;21.39;30.44;97296.22;5217255;27;967;-74
2024/04/22 00:45:36;;;;;;;;;;;;;;;21.81;30.27;97288.19;5268515;27;946;-74
2024/04/22 00:48:02;;;;;;;;;;;;;;;22.03;30.46;97307.97;5270246;27;1797;-75
2024/04/22 00:50:28;;;;;;;;;;;;;;;22.17;30.61;97308.66;5220974;27;957;-74
2024/04/22 00:52:53;;;;;;;;;;;;;;;21.84;30.88;97301.41;5211601;27;940;-74
2024/04/22 00:55:19;;;;;;;;;;;;;;;21.51;30.95;97314.41;5211550;27;971;-74
2024/04/22 00:57:44;;;;;;;;;;;;;;;21.45;30.91;97311.41;5181142;27;1759;-74
2024/04/22 01:00:11;;;;;;;;;;;;;;;21.44;30.61;97320.31;5216088;27;1245;-73
2024/04/22 01:02:37;;;;;;;;;;;;;;;21.36;30.74;97313.34;5312083;27;1821;-74
2024/04/22 01:05:02;;;;;;;;;;;;;;;21.58;30.48;97308.47;5284055;27;1315;-74
2024/04/22 01:07:28;;;;;;;;;;;;;;;21.42;30.61;97315.13;5283751;27;1098;-74
2024/04/22 01:09:53;;;;;;;;;;;;;;;21.27;30.84;97317.66;5242997;27;1679;-75
2024/04/22 01:12:19;;;;;;;;;;;;;;;21.56;30.78;97316.66;5242545;27;960;-74
2024/04/22 01:14:44;;;;;;;;;;;;;;;21.49;30.79;97316.91;5238932;27;972;-76
2024/04/22 01:17:10;;;;;;;;;;;;;;;21.39;30.99;97326.56;5238933;27;1047;-74
2024/04/22 01:19:35;;;;;;;;;;;;;;;21.57;30.59;97329.56;5237343;27;2103;-74
2024/04/22 01:22:01;;;;;;;;;;;;;;;21.52;30.67;97330.16;5238854;27;1852;-74
2024/04/22 01:24:26;;;;;;;;;;;;;;;21.33;30.98;97327.16;5211059;27;931;-74
2024/04/22 01:26:52;;;;;;;;;;;;;;;21.28;30.86;97336.22;5211110;27;1138;-74
2024/04/22 01:29:17;;;;;;;;;;;;;;;21.32;30.86;97330.47;5280812;27;1676;-74
2024/04/22 01:31:43;;;;;;;;;;;;;;;21.29;30.79;97329.28;5312094;27;990;-74
2024/04/22 01:34:08;;;;;;;;;;;;;;;21.51;30.58;97320.88;5277535;27;912;-75
2024/04/22 01:36:36;;;;;;;;;;;;;;;21.31;30.67;97321.19;5277837;27;1333;-74
2024/04/22 01:39:01;;;;;;;;;;;;;;;21.37;30.69;97327.03;5276654;27;1837;-73
2024/04/22 01:41:27;;;;;;;;;;;;;;;21.18;30.76;97331.72;5249549;27;1829;-74
2024/04/22 01:43:52;;;;;;;;;;;;;;;21.20;30.66;97346.22;5221844;27;1223;-75
2024/04/22 01:46:18;;;;;;;;;;;;;;;21.34;30.30;97344.94;5249730;27;1093;-74
2024/04/22 01:48:43;;;;;;;;;;;;;;;21.19;30.72;97350.28;5249005;27;2070;-74
2024/04/22 01:51:09;;;;;;;;;;;;;;;21.53;29.98;97341.00;5221717;27;1253;-74
2024/04/22 01:53:34;;;;;;;;;;;;;;;21.32;30.25;97334.06;5194308;27;1167;-74
2024/04/22 01:56:00;;;;;;;;;;;;;;;21.37;30.09;97329.09;5248968;27;1200;-75
2024/04/22 01:58:26;;;;;;;;;;;;;;;21.27;30.25;97345.94;5248574;27;2067;-74
2024/04/22 02:00:51;;;;;;;;;;;;;;;21.30;30.13;97356.41;5277421;27;1859;-75
2024/04/22 02:03:17;;;;;;;;;;;;;;;21.20;30.26;97351.88;5277324;27;1073;-74
2024/04/22 02:05:42;;;;;;;;;;;;;;;21.41;30.09;97352.38;5276477;27;1613;-74
2024/04/22 02:08:08;;;;;;;;;;;;;;;21.73;30.35;97346.34;5249044;27;905;-75
2024/04/22 02:10:33;;;;;;;;;;;;;;;21.96;30.41;97366.91;5272095;26;989;-74
2024/04/22 02:13:02;;;;;;;;;;;;;;;21.96;31.04;97355.59;5322935;26;1098;-74
2024/04/22 02:15:28;;;;;;;;;;;;;;;21.99;30.73;97371.66;5322790;26;1118;-74
2024/04/22 02:17:53;;;;;;;;;;;;;;;21.53;31.26;97368.50;5380345;26;1799;-75
2024/04/22 02:20:19;;;;;;;;;;;;;;;21.29;31.36;97371.75;5345440;26;1148;-74
2024/04/22 02:22:44;;;;;;;;;;;;;;;21.68;30.56;97363.91;5316915;26;1838;-74
2024/04/22 02:25:10;;;;;;;;;;;;;;;21.71;30.26;97373.50;5260101;26;1242;-74
2024/04/22 02:27:35;;;;;;;;;;;;;;;21.45;30.66;97372.84;5392818;26;1862;-74
2024/04/22 02:30:01;;;;;;;;;;;;;;;21.61;30.43;97367.03;5416159;26;1022;-75
2024/04/22 02:32:27;;;;;;;;;;;;;;;21.47;30.75;97370.34;5357206;26;1137;-74
2024/04/22 02:34:52;;;;;;;;;;;;;;;21.48;30.71;97367.06;5386147;26;885;-74
2024/04/22 02:37:18;;;;;;;;;;;;;;;21.41;30.77;97367.31;5350547;26;1818;-75
2024/04/22 02:39:43;;;;;;;;;;;;;;;21.29;30.89;97366.06;5351073;26;1089;-75
2024/04/22 02:42:09;;;;;;;;;;;;;;;21.13;31.31;97368.28;5353365;26;2138;-74
2024/04/22 02:44:35;;;;;;;;;;;;;;;21.31;31.12;97374.94;5351385;26;2137;-74
2024/04/22 02:47:00;;;;;;;;;;;;;;;21.32;30.66;97376.53;5351529;26;2035;-74
2024/04/22 02:49:28;;;;;;;;;;;;;;;21.44;30.60;97383.38;5353782;26;1755;-74
2024/04/22 02:51:53;;;;;;;;;;;;;;;21.31;30.80;97386.25;5354406;26;972;-74
2024/04/22 02:54:25;;;;;;;;;;;;;;;21.27;30.87;97390.44;5353403;26;2085;-74
2024/04/22 02:56:50;;;;;;;;;;;;;;;21.26;30.83;97389.66;5386900;26;921;-74
2024/04/22 02:59:16;;;;;;;;;;;;;;;21.35;30.60;97397.47;5389665;26;971;-75
2024/04/22 03:01:41;;;;;;;;;;;;;;;21.68;30.00;97397.09;5362722;26;1827;-74
2024/04/22 03:04:07;;;;;;;;;;;;;;;21.21;30.66;97407.19;5387217;26;2104;-75
2024/04/22 03:06:32;;;;;;;;;;;;;;;21.44;30.41;97408.84;5314483;26;1545;-74
2024/04/22 03:08:58;;;;;;;;;;;;;;;21.41;30.38;97406.16;5340176;26;961;-74
2024/04/22 03:11:23;;;;;;;;;;;;;;;21.29;30.45;97408.53;5348343;26;1170;-74
2024/04/22 03:13:49;;;;;;;;;;;;;;;21.20;30.73;97408.47;5319233;26;1129;-73
2024/04/22 03:16:14;;;;;;;;;;;;;;;21.06;31.07;97408.94;5349196;26;2057;-75
2024/04/22 03:18:40;;;;;;;;;;;;;;;21.42;30.40;97419.06;5353815;26;1233;-74
2024/04/22 03:21:05;;;;;;;;;;;;;;;21.31;30.66;97431.53;5325230;26;1831;-74
2024/04/22 03:23:31;;;;;;;;;;;;;;;21.33;30.71;97428.25;5324805;26;1013;-74
2024/04/22 03:25:56;;;;;;;;;;;;;;;21.45;30.60;97435.09;5346314;26;2010;-75
2024/04/22 03:28:22;;;;;;;;;;;;;;;21.49;30.50;97439.41;5379559;26;1978;-74
2024/04/22 03:30:47;;;;;;;;;;;;;;;21.44;30.51;97442.03;5383108;26;942;-74
2024/04/22 03:33:13;;;;;;;;;;;;;;;21.32;30.62;97438.78;5324911;26;988;-74
2024/04/22 03:35:38;;;;;;;;;;;;;;;21.40;30.57;97438.53;5312876;26;2204;-74
2024/04/22 03:38:04;;;;;;;;;;;;;;;21.28;30.87;97443.72;5285141;27;904;-74
2024/04/22 03:40:30;;;;;;;;;;;;;;;21.27;30.90;97447.03;5284950;27;975;-75
2024/04/22 03:42:55;;;;;;;;;;;;;;;21.47;30.37;97443.94;5314358;26;1844;-74
2024/04/22 03:45:20;;;;;;;;;;;;;;;21.27;30.82;97444.97;5348043;26;972;-74
2024/04/22 03:50:30;;;;;;;;;;;;;;;21.30;30.65;97457.47;5347882;26;1016;-75
2024/04/22 03:52:56;;;;;;;;;;;;;;;21.36;30.84;97466.19;5318317;26;1839;-74
2024/04/22 03:55:21;;;;;;;;;;;;;;;21.46;30.74;97459.34;5318778;26;951;-75
2024/04/22 03:57:47;;;;;;;;;;;;;;;21.21;30.99;97472.28;5319153;26;1079;-74
2024/04/22 04:00:13;;;;;;;;;;;;;;;21.19;31.21;97480.44;5318916;26;1007;-74
2024/04/22 04:02:38;;;;;;;;;;;;;;;21.13;31.12;97487.91;5316979;26;1990;-74
2024/04/22 04:05:04;;;;;;;;;;;;;;;21.39;30.55;97487.88;5318722;26;938;-74
2024/04/22 04:07:29;;;;;;;;;;;;;;;21.39;30.62;97499.22;5318797;26;981;-74
2024/04/22 04:09:55;;;;;;;;;;;;;;;21.54;30.39;97486.16;5347372;26;1008;-74
2024/04/22 04:12:20;;;;;;;;;;;;;;;21.46;30.38;97487.66;5354116;26;972;-75
2024/04/22 04:14:46;;;;;;;;;;;;;;;21.66;30.04;97490.19;5417454;26;1046;-74
2024/04/22 04:17:11;;;;;;;;;;;;;;;21.25;30.68;97512.56;5388959;26;903;-74
2024/04/22 04:19:37;;;;;;;;;;;;;;;21.19;30.73;97528.53;5389932;26;1122;-74
2024/04/22 04:22:02;;;;;;;;;;;;;;;21.14;30.82;97523.44;5421035;26;1821;-74
2024/04/22 04:24:28;;;;;;;;;;;;;;;21.27;30.42;97532.69;5412435;26;1385;-75
2024/04/22 04:26:54;;;;;;;;;;;;;;;21.41;30.27;97542.00;5372845;26;1308;-76
2024/04/22 04:29:19;;;;;;;;;;;;;;;21.37;30.33;97549.81;5381393;26;1294;-76
2024/04/22 04:31:45;;;;;;;;;;;;;;;21.21;30.63;97545.84;5398340;26;1450;-76
2024/04/22 04:34:10;;;;;;;;;;;;;;;21.18;30.72;97552.41;5372785;26;1293;-76
2024/04/22 04:36:36;;;;;;;;;;;;;;;21.18;30.56;97543.13;5402423;26;1402;-75
2024/04/22 04:39:01;;;;;;;;;;;;;;;21.32;30.33;97563.28;5398859;26;1292;-77
2024/04/22 04:41:27;;;;;;;;;;;;;;;21.64;29.80;97552.94;5372821;26;1834;-76
2024/04/22 04:43:52;;;;;;;;;;;;;;;21.24;30.53;97553.44;5401467;26;1446;-76
2024/04/22 04:46:18;;;;;;;;;;;;;;;21.52;29.96;97565.09;5353681;26;1367;-76
2024/04/22 04:48:46;;;;;;;;;;;;;;;21.38;30.23;97559.88;5397609;26;1304;-75
2024/04/22 04:51:11;;;;;;;;;;;;;;;21.17;30.74;97559.31;5397020;26;1387;-76
2024/04/22 04:53:37;;;;;;;;;;;;;;;21.29;30.48;97558.50;5400028;26;1466;-76
2024/04/22 04:56:02;;;;;;;;;;;;;;;21.29;30.47;97563.38;5398839;26;1379;-76
2024/04/22 04:58:28;;;;;;;;;;;;;;;21.21;30.75;97567.69;5397510;26;1289;-76
2024/04/22 05:00:53;;;;;;;;;;;;;;;21.41;30.44;97570.31;5400884;26;1841;-75
2024/04/22 05:03:19;;;;;;;;;;;;;;;21.54;30.01;97568.25;5399144;26;1344;-75
2024/04/22 05:05:44;;;;;;;;;;;;;;;21.51;30.06;97557.84;5397693;26;1454;-75
2024/04/22 05:08:10;;;;;;;;;;;;;;;21.49;30.16;97561.13;5397940;26;1300;-75
2024/04/22 05:10:35;;;;;;;;;;;;;;;21.41;30.08;97575.97;5402394;26;1323;-75
2024/04/22 05:13:01;;;;;;;;;;;;;;;21.47;29.88;97576.97;5400688;26;1351;-76
2024/04/22 05:15:27;;;;;;;;;;;;;;;21.40;30.08;97580.84;5387372;26;1289;-76
2024/04/22 05:17:52;;;;;;;;;;;;;;;21.54;29.77;97588.06;5373407;26;1403;-76
2024/04/22 05:20:18;;;;;;;;;;;;;;;21.31;30.23;97595.66;5399464;26;1295;-75
2024/04/22 05:22:44;;;;;;;;;;;;;;;21.57;29.75;97595.66;5372032;26;1829;-76
2024/04/22 05:25:09;;;;;;;;;;;;;;;21.42;29.90;97583.22;5396663;26;1493;-75
2024/04/22 05:27:35;;;;;;;;;;;;;;;21.24;30.14;97590.22;5401712;26;1446;-75
2024/04/22 05:30:01;;;;;;;;;;;;;;;21.43;29.67;97585.59;5390979;26;1288;-75
2024/04/22 05:32:26;;;;;;;;;;;;;;;21.18;30.24;97592.00;5415904;26;1331;-76
2024/04/22 05:37:36;;;;;;;;;;;;;;;21.22;29.91;97591.91;5416941;26;1003;-76
2024/04/22 05:40:02;;;;;;;;;;;;;;;21.26;29.96;97599.03;5386876;26;1129;-77
2024/04/22 05:42:27;;;;;;;;;;;;;;;21.40;29.71;97605.50;5387159;26;1830;-76
2024/04/22 05:44:53;;;;;;;;;;;;;;;21.20;29.98;97603.69;5416687;26;957;-76
2024/04/22 05:47:18;;;;;;;;;;;;;;;21.25;29.90;97613.66;5351507;26;1137;-76
2024/04/22 05:49:44;;;;;;;;;;;;;;;21.22;29.76;97614.53;5352005;26;921;-75
2024/04/22 05:52:09;;;;;;;;;;;;;;;21.48;29.51;97621.03;5345872;26;948;-77
2024/04/22 05:54:35;;;;;;;;;;;;;;;21.35;29.84;97623.88;5260554;26;1088;-76
2024/04/22 05:57:00;;;;;;;;;;;;;;;21.31;29.62;97629.63;5345996;26;945;-77
2024/04/22 05:59:26;;;;;;;;;;;;;;;21.35;29.62;97625.88;5317028;26;974;-75
2024/04/22 06:01:51;;;;;;;;;;;;;;;21.44;29.42;97631.66;5232514;27;1831;-77
2024/04/22 06:04:17;;;;;;;;;;;;;;;21.51;29.36;97639.94;5221089;27;1507;-76
2024/04/22 06:06:42;;;;;;;;;;;;;;;21.50;29.44;97644.81;5221080;27;929;-76
2024/04/22 06:09:14;;;;;;;;;;;;;;;21.30;29.71;97635.75;5249164;27;969;-76
2024/04/22 06:11:40;;;;;;;;;;;;;;;21.23;29.95;97639.53;5250552;27;1041;-76
2024/04/22 06:14:05;;;;;;;;;;;;;;;21.30;29.62;97645.03;5249275;27;924;-76
2024/04/22 06:16:31;;;;;;;;;;;;;;;21.27;29.68;97645.88;5251700;27;984;-76
2024/04/22 06:18:57;;;;;;;;;;;;;;;21.34;29.79;97639.25;5280229;27;972;-76
2024/04/22 06:21:22;;;;;;;;;;;;;;;21.47;29.57;97645.72;5252581;27;1830;-76
2024/04/22 06:23:48;;;;;;;;;;;;;;;21.48;29.65;97638.78;5255216;27;1280;-76
2024/04/22 06:26:14;;;;;;;;;;;;;;;21.22;29.93;97654.16;5257732;27;1135;-76
2024/04/22 06:28:39;;;;;;;;;;;;;;;21.12;29.80;97667.38;5322270;26;912;-75
2024/04/22 06:31:05;;;;;;;;;;;;;;;21.16;29.57;97668.06;5385358;26;1159;-76
2024/04/22 06:33:33;;;;;;;;;;;;;;;21.22;29.49;97660.59;5356082;26;1021;-76
2024/04/22 06:35:58;;;;;;;;;;;;;;;21.26;30.19;97661.28;5327551;26;1141;-76
2024/04/22 06:38:25;;;;;;;;;;;;;;;22.04;29.97;97668.53;5387130;26;923;-75
2024/04/22 06:40:50;;;;;;;;;;;;;;;22.24;29.99;97677.59;5385221;26;1845;-76
2024/04/22 06:43:16;;;;;;;;;;;;;;;22.16;30.89;97676.25;5327209;26;1158;-76
2024/04/22 06:45:43;;;;;;;;;;;;;;;22.02;30.99;97676.69;5383916;26;1005;-75
2024/04/22 06:48:09;;;;;;;;;;;;;;;21.76;31.05;97688.06;5385079;26;945;-76
2024/04/22 06:50:35;;;;;;;;;;;;;;;21.67;31.00;97690.78;5355634;26;1226;-76
2024/04/22 06:53:00;;;;;;;;;;;;;;;21.69;30.70;97688.28;5354238;26;1247;-76
2024/04/22 06:55:25;;;;;;;;;;;;;;;21.75;30.51;97697.78;5354508;26;928;-77
2024/04/22 06:57:51;;;;;;;;;;;;;;;21.53;30.87;97691.22;5383545;26;963;-75
2024/04/22 07:00:17;;;;;;;;;;;;;;;21.36;31.48;97704.69;5354012;26;1137;-76
2024/04/22 07:02:42;;;;;;;;;;;;;;;21.52;31.05;97706.63;5319110;26;1823;-76
2024/04/22 07:05:08;;;;;;;;;;;;;;;21.44;31.17;97714.53;5348378;26;963;-76
2024/04/22 07:07:33;;;;;;;;;;;;;;;21.56;30.92;97722.25;5290739;26;1410;-76
2024/04/22 07:09:59;;;;;;;;;;;;;;;21.53;30.94;97722.38;5319213;26;1029;-76
2024/04/22 07:12:24;;;;;;;;;;;;;;;21.63;31.02;97741.06;5319334;26;933;-76
2024/04/22 07:14:50;;;;;;;;;;;;;;;21.58;30.83;97733.13;5290777;26;1158;-76
2024/04/22 07:17:15;;;;;;;;;;;;;;;21.47;31.24;97733.47;5319400;26;968;-73
2024/04/22 07:19:41;;;;;;;;;;;;;;;21.65;30.57;97727.22;5262519;26;1133;-73
2024/04/22 07:22:06;;;;;;;;;;;;;;;21.56;30.79;97736.41;5319274;26;1866;-74
2024/04/22 07:24:32;;;;;;;;;;;;;;;21.50;30.89;97737.41;5284839;27;1143;-74
2024/04/22 07:26:58;;;;;;;;;;;;;;;21.52;30.77;97738.56;5312351;27;1352;-73
2024/04/22 07:29:23;;;;;;;;;;;;;;;21.59;30.76;97746.03;5313756;27;905;-73
2024/04/22 07:31:50;;;;;;;;;;;;;;;21.40;30.97;97755.50;5313613;27;1070;-73
2024/04/22 07:34:16;;;;;;;;;;;;;;;21.23;31.27;97758.38;5319389;26;923;-74
2024/04/22 07:36:47;;;;;;;;;;;;;;;21.33;30.81;97762.97;5319379;26;943;-74
2024/04/22 07:39:14;;;;;;;;;;;;;;;21.31;30.86;97771.13;5319228;26;982;-73
2024/04/22 07:41:39;;;;;;;;;;;;;;;21.20;31.18;97784.75;5290880;26;1850;-73
2024/04/22 07:44:05;;;;;;;;;;;;;;;21.44;30.62;97779.63;5290980;26;1043;-74
2024/04/22 07:46:31;;;;;;;;;;;;;;;21.42;30.46;97787.00;5319188;26;963;-73
2024/04/22 07:48:57;;;;;;;;;;;;;;;21.50;30.47;97805.34;5319172;26;1010;-74
2024/04/22 07:51:22;;;;;;;;;;;;;;;21.30;30.76;97812.00;5262276;26;1130;-73
2024/04/22 07:53:48;;;;;;;;;;;;;;;21.40;30.21;97806.44;5290289;26;1153;-74
2024/04/22 07:56:14;;;;;;;;;;;;;;;21.30;30.48;97817.66;5309273;26;1219;-74
2024/04/22 07:58:40;;;;;;;;;;;;;;;21.25;30.51;97815.34;5353669;26;997;-73
2024/04/22 08:01:05;;;;;;;;;;;;;;;21.19;30.53;97814.31;5313022;27;1842;-73
2024/04/22 08:03:31;;;;;;;;;;;;;;;21.59;29.82;97819.66;5313061;27;964;-73
2024/04/22 08:05:58;;;;;;;;;;;;;;;21.29;30.36;97824.50;5313491;27;1032;-73
2024/04/22 08:08:23;;;;;;;;;;;;;;;21.42;30.22;97835.13;5312964;27;984;-73
2024/04/22 08:10:49;;;;;;;;;;;;;;;21.04;30.64;97830.88;5313041;27;1046;-73
2024/04/22 08:13:14;;;;;;;;;;;;;;;21.56;29.83;97843.22;5313127;27;1140;-73
2024/04/22 08:15:40;;;;;;;;;;;;;;;21.43;30.21;97833.88;5312844;27;920;-73
2024/04/22 08:18:05;;;;;;;;;;;;;;;21.36;30.21;97839.75;5284456;27;1031;-74
2024/04/22 08:20:31;;;;;;;;;;;;;;;21.45;29.81;97843.53;5284285;27;1326;-73
2024/04/22 08:22:59;;;;;;;;;;;;;;;21.50;29.97;97842.16;5318154;26;1831;-73
2024/04/22 08:25:24;;;;;;;;;;;;;;;21.21;30.30;97848.59;5318563;26;916;-73
2024/04/22 08:27:50;;;;;;;;;;;;;;;21.56;29.64;97848.88;5359740;26;1375;-73
2024/04/22 08:30:16;;;;;;;;;;;;;;;21.42;29.82;97855.72;5361128;26;1364;-74
2024/04/22 08:32:41;;;;;;;;;;;;;;;21.28;30.21;97862.53;5308344;26;1459;-74
2024/04/22 08:35:07;;;;;;;;;;;;;;;21.35;30.02;97860.78;5333775;26;1400;-75
2024/04/22 08:37:32;;;;;;;;;;;;;;;21.50;30.03;97861.97;5308685;26;1338;-74
2024/04/22 08:39:58;;;;;;;;;;;;;;;21.40;30.10;97863.88;5366430;26;1482;-76
2024/04/22 08:42:23;;;;;;;;;;;;;;;21.14;30.35;97850.81;5361454;26;1837;-74
2024/04/22 08:44:50;;;;;;;;;;;;;;;21.12;30.28;97859.75;5337571;26;1305;-74
2024/04/22 08:47:15;;;;;;;;;;;;;;;21.18;30.24;97869.28;5276530;26;1295;-73
2024/04/22 08:49:41;;;;;;;;;;;;;;;21.45;30.04;97862.50;5307354;26;1303;-75
2024/04/22 08:52:06;;;;;;;;;;;;;;;21.80;30.01;97884.16;5332909;26;1291;-75
2024/04/22 08:54:33;;;;;;;;;;;;;;;22.03;30.23;97887.94;5372795;26;1471;-74
2024/04/22 08:56:58;;;;;;;;;;;;;;;21.84;30.77;97887.69;5391898;26;1403;-74
2024/04/22 08:59:24;;;;;;;;;;;;;;;21.84;30.95;97892.53;5404638;26;1308;-74
2024/04/22 09:02:02;;;;;;;;;;;;;;;21.54;31.34;97882.47;5366669;26;1830;-74
2024/04/22 09:04:27;;;;;;;;;;;;;;;21.45;31.35;97888.00;5370036;26;1301;-75
2024/04/22 09:06:53;;;;;;;;;;;;;;;21.46;31.35;97890.41;5370578;26;1579;-75
2024/04/22 09:09:19;;;;;;;;;;;;;;;21.50;31.13;97891.09;5365996;26;1293;-74
2024/04/22 09:11:50;;;;;;;;;;;;;;;21.44;31.57;97892.84;5396457;26;1395;-74
2024/04/22 09:14:16;;;;;;;;;;;;;;;21.40;31.56;97897.03;5367930;26;1374;-75
2024/04/22 09:16:42;;;;;;;;;;;;;;;21.57;31.15;97907.09;5356386;26;1625;-74
2024/04/22 09:19:07;;;;;;;;;;;;;;;21.59;31.10;97904.59;5394990;26;1301;-74
2024/04/22 09:21:39;;;;;;;;;;;;;;;21.39;31.67;97918.09;5365698;26;1838;-74
2024/04/22 09:24:06;;;;;;;;;;;;;;;21.38;31.52;97920.13;5365808;26;1150;-74
2024/04/22 09:26:32;;;;;;;;;;;;;;;21.43;31.37;97904.63;5365515;26;1278;-74
2024/04/22 09:29:00;;;;;;;;;;;;;;;21.57;30.93;97907.09;5352124;26;1408;-74
2024/04/22 09:31:26;;;;;;;;;;;;;;;21.67;30.72;97908.03;5381435;26;963;-74
2024/04/22 09:33:53;;;;;;;;;;;;;;;21.55;30.98;97901.06;5382789;26;1055;-75
2024/04/22 09:36:19;;;;;;;;;;;;;;;21.62;31.11;97909.38;5383025;26;963;-74
2024/04/22 09:38:45;;;;;;;;;;;;;;;21.61;31.08;97913.44;5382661;26;1014;-74
2024/04/22 09:41:10;;;;;;;;;;;;;;;21.58;31.03;97905.84;5382788;26;1830;-74
2024/04/22 09:43:37;;;;;;;;;;;;;;;21.41;31.43;97915.63;5382599;26;902;-73
2024/04/22 09:46:03;;;;;;;;;;;;;;;21.59;31.01;97924.41;5380872;26;869;-74
2024/04/22 09:48:31;;;;;;;;;;;;;;;21.65;30.73;97931.09;5322979;26;1235;-74
2024/04/22 09:50:57;;;;;;;;;;;;;;;21.59;31.07;97927.22;5380184;26;928;-74
2024/04/22 09:53:24;;;;;;;;;;;;;;;21.61;30.58;97936.09;5317137;26;963;-74
2024/04/22 09:55:49;;;;;;;;;;;;;;;21.59;30.74;97949.88;5317111;26;883;-74
2024/04/22 09:58:15;;;;;;;;;;;;;;;21.35;30.94;97940.03;5288664;26;978;-74
2024/04/22 10:00:40;;;;;;;;;;;;;;;21.33;31.05;97952.59;5288940;26;1826;-74
2024/04/22 10:03:06;;;;;;;;;;;;;;;21.44;30.64;97945.84;5317157;26;965;-74
2024/04/22 10:05:31;;;;;;;;;;;;;;;21.43;30.64;97941.44;5288363;26;859;-75
2024/04/22 10:08:01;;;;;;;;;;;;;;;21.33;30.68;97949.75;5316560;26;989;-76
2024/04/22 10:10:27;;;;;;;;;;;;;;;21.48;30.58;97953.00;5317446;26;956;-75
2024/04/22 10:12:52;;;;;;;;;;;;;;;21.47;30.61;97967.63;5316536;26;1239;-76
2024/04/22 10:15:19;;;;;;;;;;;;;;;21.62;30.33;97968.81;5288274;26;1282;-75
2024/04/22 10:17:45;;;;;;;;;;;;;;;21.28;30.91;97972.13;5344794;26;1100;-76
2024/04/22 10:20:10;;;;;;;;;;;;;;;21.33;30.52;97966.75;5380448;26;935;-75
2024/04/22 10:22:36;;;;;;;;;;;;;;;21.52;30.22;97967.88;5344533;26;2434;-76
2024/04/22 10:25:05;;;;;;;;;;;;;;;21.36;30.52;97964.28;5287695;26;1125;-75
2024/04/22 10:27:31;;;;;;;;;;;;;;;21.46;30.25;97974.53;5345531;26;1146;-76
2024/04/22 10:29:56;;;;;;;;;;;;;;;21.40;30.35;97976.28;5316042;26;1217;-75
2024/04/22 10:32:22;;;;;;;;;;;;;;;21.41;30.30;97977.91;5316389;26;942;-76
2024/04/22 10:34:47;;;;;;;;;;;;;;;21.45;30.19;97972.91;5344869;26;1267;-76
2024/04/22 10:37:13;;;;;;;;;;;;;;;21.32;30.31;97970.81;5344815;26;894;-76
2024/04/22 10:39:39;;;;;;;;;;;;;;;21.41;30.40;97977.91;5345172;26;991;-76
2024/04/22 10:42:04;;;;;;;;;;;;;;;21.20;30.51;97984.88;5316226;26;1848;-75
2024/04/22 10:44:30;;;;;;;;;;;;;;;21.27;30.49;97996.78;5344903;26;820;-75
2024/04/22 10:46:55;;;;;;;;;;;;;;;21.43;30.13;97998.03;5344619;26;812;-76
2024/04/22 10:49:21;;;;;;;;;;;;;;;21.47;30.15;98002.38;5319369;26;906;-75
2024/04/22 10:51:46;;;;;;;;;;;;;;;21.39;30.18;98003.78;5379851;26;984;-76
2024/04/22 10:54:12;;;;;;;;;;;;;;;21.37;30.10;98011.16;5345489;26;931;-76
2024/04/22 10:56:39;;;;;;;;;;;;;;;21.77;29.60;98006.84;5321740;26;1031;-77
2024/04/22 10:59:04;;;;;;;;;;;;;;;21.44;29.93;98017.41;5350477;26;925;-77
2024/04/22 11:01:30;;;;;;;;;;;;;;;21.54;29.79;98021.22;5350259;26;1826;-75
2024/04/22 11:03:55;;;;;;;;;;;;;;;21.26;30.19;98022.72;5353609;26;1036;-75
2024/04/22 11:06:21;;;;;;;;;;;;;;;21.60;29.87;98022.25;5324738;26;1530;-75
2024/04/22 11:08:46;;;;;;;;;;;;;;;21.33;30.10;98017.69;5324813;26;1230;-75
2024/04/22 11:11:16;;;;;;;;;;;;;;;21.36;30.10;98015.22;5324759;26;1227;-75
2024/04/22 11:13:42;;;;;;;;;;;;;;;21.45;30.11;98021.03;5325904;26;837;-75
2024/04/22 11:16:07;;;;;;;;;;;;;;;21.49;29.96;98018.91;5324621;26;910;-76
2024/04/22 11:18:33;;;;;;;;;;;;;;;21.51;29.78;98005.13;5353858;26;931;-75
2024/04/22 11:20:58;;;;;;;;;;;;;;;21.15;30.40;98014.50;5353612;26;1871;-75
2024/04/22 11:23:24;;;;;;;;;;;;;;;21.55;29.68;98022.78;5374909;26;1094;-75
2024/04/22 11:25:50;;;;;;;;;;;;;;;21.51;29.80;98016.44;5361100;26;979;-75
2024/04/22 11:28:15;;;;;;;;;;;;;;;21.44;30.03;98013.78;5389962;26;1255;-75
2024/04/22 11:30:44;;;;;;;;;;;;;;;21.40;30.22;98021.56;5360730;26;904;-75
2024/04/22 11:33:12;;;;;;;;;;;;;;;21.19;30.24;98028.53;5353105;26;840;-75
2024/04/22 11:35:38;;;;;;;;;;;;;;;21.23;30.29;98023.59;5324430;26;1133;-76
2024/04/22 11:38:04;;;;;;;;;;;;;;;21.19;30.42;98026.53;5347467;26;999;-76
2024/04/22 11:40:29;;;;;;;;;;;;;;;21.22;30.29;98033.31;5284249;27;877;-75
2024/04/22 11:42:55;;;;;;;;;;;;;;;21.17;30.50;98039.50;5313115;26;1823;-75
2024/04/22 11:45:20;;;;;;;;;;;;;;;21.45;29.77;98023.88;5284288;27;966;-75
2024/04/22 11:47:46;;;;;;;;;;;;;;;21.44;29.69;98034.41;5312648;26;856;-76
2024/04/22 11:50:12;;;;;;;;;;;;;;;21.58;29.70;98024.75;5312960;27;740;-76
2024/04/22 11:52:37;;;;;;;;;;;;;;;21.18;30.13;98039.06;5312941;27;972;-76
2024/04/22 11:55:03;;;;;;;;;;;;;;;21.26;29.85;98057.47;5284536;27;1185;-75
2024/04/22 11:57:28;;;;;;;;;;;;;;;21.30;29.78;98044.06;5313120;27;963;-76
2024/04/22 11:59:54;;;;;;;;;;;;;;;21.52;29.56;98035.81;5313385;27;937;-75
2024/04/22 12:02:19;;;;;;;;;;;;;;;21.13;30.22;98033.91;5313072;26;1827;-76
2024/04/22 12:04:45;;;;;;;;;;;;;;;21.16;30.03;98047.19;5309392;26;1059;-75
2024/04/22 12:07:11;;;;;;;;;;;;;;;21.18;30.17;98038.25;5290408;26;1036;-76
2024/04/22 12:09:37;;;;;;;;;;;;;;;21.47;29.72;98038.38;5290042;26;1086;-76
2024/04/22 12:12:03;;;;;;;;;;;;;;;21.33;29.85;98037.50;5319174;26;1089;-75
2024/04/22 12:14:28;;;;;;;;;;;;;;;21.32;29.79;98052.88;5319854;26;1194;-75
2024/04/22 12:16:54;;;;;;;;;;;;;;;21.44;29.78;98044.91;5349713;26;1189;-75
2024/04/22 12:19:19;;;;;;;;;;;;;;;21.39;29.75;98042.63;5389491;26;965;-76
2024/04/22 12:21:45;;;;;;;;;;;;;;;21.46;29.60;98048.91;5418929;26;1846;-76
2024/04/22 12:24:10;;;;;;;;;;;;;;;21.38;29.81;98055.19;5389585;26;940;-76
2024/04/22 12:26:36;;;;;;;;;;;;;;;21.36;29.97;98049.19;5383728;26;1139;-75
2024/04/22 12:29:01;;;;;;;;;;;;;;;21.56;29.53;98047.06;5354444;26;1272;-75
2024/04/22 12:31:27;;;;;;;;;;;;;;;21.66;29.36;98050.81;5355018;26;926;-76
2024/04/22 12:33:52;;;;;;;;;;;;;;;21.39;30.04;98049.06;5384461;26;947;-75
2024/04/22 12:36:18;;;;;;;;;;;;;;;21.28;29.85;98059.84;5354389;26;1255;-76
2024/04/22 12:38:43;;;;;;;;;;;;;;;21.39;29.71;98043.41;5382473;26;889;-75
2024/04/22 12:41:09;;;;;;;;;;;;;;;21.13;29.97;98052.94;5383590;26;1822;-76
2024/04/22 12:43:34;;;;;;;;;;;;;;;21.35;29.89;98042.72;5353158;26;1094;-75
2024/04/22 12:46:00;;;;;;;;;;;;;;;21.25;29.99;98050.22;5383339;26;901;-76
2024/04/22 12:51:10;;;;;;;;;;;;;;;21.53;29.43;98043.06;5383743;26;1014;-75
2024/04/22 12:53:35;;;;;;;;;;;;;;;21.35;29.84;98054.06;5352700;26;915;-76
2024/04/22 12:56:01;;;;;;;;;;;;;;;21.29;29.73;98048.06;5353142;26;998;-74
2024/04/22 12:58:29;;;;;;;;;;;;;;;21.38;29.75;98052.38;5283605;27;889;-76
2024/04/22 13:00:55;;;;;;;;;;;;;;;21.31;29.85;98045.66;5284067;27;1825;-75